createdAt,value
2022-08-25T00:04:14.646Z,13.63
2022-08-25T00:09:20.406Z,18.95
2022-08-25T00:14:30.254Z,20.50
2022-08-25T00:19:37.251Z,18.38
2022-08-25T00:24:41.036Z,14.95
2022-08-25T00:29:46.895Z,18.33
2022-08-25T00:34:50.665Z,16.52
2022-08-25T00:39:57.422Z,14.15
2022-08-25T00:45:02.819Z,14.75
2022-08-25T00:50:11.656Z,13.18
2022-08-25T00:55:20.015Z,11.95
2022-08-25T01:00:28.727Z,17.05
2022-08-25T01:05:32.559Z,16.35
2022-08-25T01:10:38.036Z,13.23
2022-08-25T01:15:43.134Z,12.75
2022-08-25T01:20:51.106Z,14.95
2022-08-25T01:26:03.219Z,13.15
2022-08-25T01:31:23.831Z,13.27
2022-08-25T01:36:31.227Z,15.05
2022-08-25T01:41:46.416Z,12.93
2022-08-25T01:46:50.256Z,16.30
2022-08-25T01:52:01.792Z,12.23
2022-08-25T01:57:05.868Z,13.38
2022-08-25T02:02:10.555Z,10.32
2022-08-25T02:07:15.550Z,14.65
2022-08-25T02:12:19.066Z,12.07
2022-08-25T02:17:42.503Z,16.80
2022-08-25T02:22:51.141Z,14.65
2022-08-25T02:28:00.207Z,18.05
2022-08-25T02:33:04.086Z,14.10
2022-08-25T02:38:10.680Z,13.87
2022-08-25T02:43:14.094Z,15.07
2022-08-25T02:48:17.602Z,13.55
2022-08-25T02:53:23.512Z,13.45
2022-08-25T02:58:27.910Z,11.80
2022-08-25T03:03:31.411Z,17.77
2022-08-25T03:08:36.663Z,14.17
2022-08-25T03:13:40.391Z,15.75
2022-08-25T03:18:44.474Z,19.50
2022-08-25T03:23:49.658Z,16.08
2022-08-25T03:28:55.788Z,14.25
2022-08-25T03:33:59.861Z,14.35
2022-08-25T03:39:06.254Z,14.52
2022-08-25T03:44:11.338Z,14.23
2022-08-25T03:49:16.915Z,11.63
2022-08-25T03:54:24.393Z,15.80
2022-08-25T03:59:29.741Z,13.73
2022-08-25T04:04:34.224Z,12.80
2022-08-25T04:09:40.146Z,18.85
2022-08-25T04:14:44.268Z,13.45
2022-08-25T04:19:47.727Z,18.88
2022-08-25T04:24:53.248Z,12.63
2022-08-25T04:29:56.949Z,16.90
2022-08-25T04:35:00.597Z,18.27
2022-08-25T04:40:08.071Z,21.45
2022-08-25T04:45:11.868Z,17.20
2022-08-25T04:50:15.459Z,17.77
2022-08-25T04:55:20.396Z,16.52
2022-08-25T05:00:24.264Z,21.23
2022-08-25T05:05:28.142Z,20.15
2022-08-25T05:10:34.027Z,26.80
2022-08-25T05:15:52.694Z,20.45
2022-08-25T05:20:57.365Z,26.02
2022-08-25T05:26:07.772Z,23.52
2022-08-25T05:31:14.575Z,25.65
2022-08-25T05:36:19.851Z,24.90
2022-08-25T05:41:29.015Z,22.38
2022-08-25T05:46:32.436Z,19.65
2022-08-25T05:51:35.973Z,19.38
2022-08-25T05:56:41.390Z,20.98
2022-08-25T06:02:01.488Z,20.73
2022-08-25T06:07:04.945Z,20.08
2022-08-25T06:12:11.463Z,13.25
2022-08-25T06:17:15.090Z,16.65
2022-08-25T06:22:18.784Z,17.30
2022-08-25T06:27:23.613Z,12.18
2022-08-25T06:32:27.115Z,13.68
2022-08-25T06:37:30.820Z,14.57
2022-08-25T06:42:36.443Z,14.38
2022-08-25T06:47:40.025Z,12.63
2022-08-25T06:52:43.511Z,11.32
2022-08-25T06:57:49.146Z,10.57
2022-08-25T07:02:52.686Z,12.65
2022-08-25T07:07:57.162Z,11.20
2022-08-25T07:13:02.438Z,10.45
2022-08-25T07:18:06.544Z,11.27
2022-08-25T07:23:10.098Z,10.95
2022-08-25T07:28:15.739Z,8.50
2022-08-25T07:33:19.209Z,9.75
2022-08-25T07:38:23.090Z,7.90
2022-08-25T07:43:28.396Z,16.85
2022-08-25T07:48:33.291Z,9.57
2022-08-25T07:53:37.535Z,11.75
2022-08-25T07:58:43.523Z,9.32
2022-08-25T08:03:50.849Z,12.40
2022-08-25T08:08:57.828Z,11.00
2022-08-25T08:14:04.724Z,10.65
2022-08-25T08:19:08.142Z,11.52
2022-08-25T08:24:25.063Z,10.20
2022-08-25T08:29:38.255Z,9.57
2022-08-25T08:34:44.328Z,10.38
2022-08-25T08:39:48.340Z,10.25
2022-08-25T08:45:21.838Z,10.60
2022-08-25T08:50:33.584Z,9.75
2022-08-25T08:55:41.981Z,10.27
2022-08-25T09:00:52.212Z,9.43
2022-08-25T09:06:02.082Z,7.38
2022-08-25T09:11:14.873Z,8.90
2022-08-25T09:16:46.764Z,11.57
2022-08-25T09:21:58.739Z,8.70
2022-08-25T09:27:11.716Z,6.65
2022-08-25T09:32:24.130Z,7.85
2022-08-25T09:37:29.542Z,10.25
2022-08-25T09:42:51.231Z,7.82
2022-08-25T09:48:03.741Z,6.88
2022-08-25T09:53:18.604Z,9.98
2022-08-25T09:58:25.540Z,7.13
2022-08-25T10:03:31.606Z,9.23
2022-08-25T10:08:53.064Z,8.23
2022-08-25T10:14:03.814Z,6.60
2022-08-25T10:19:12.894Z,6.97
2022-08-25T10:24:16.658Z,8.05
2022-08-25T10:29:38.549Z,10.40
2022-08-25T10:34:51.739Z,7.97
2022-08-25T10:40:16.610Z,12.02
2022-08-25T10:45:41.697Z,8.90
2022-08-25T10:50:50.838Z,8.95
2022-08-25T10:56:07.588Z,8.52
2022-08-25T11:01:19.778Z,7.28
2022-08-25T11:06:40.322Z,12.75
2022-08-25T11:11:51.293Z,11.38
2022-08-25T11:17:05.052Z,8.73
2022-08-25T11:22:19.291Z,8.75
2022-08-25T11:27:24.717Z,9.65
2022-08-25T11:32:33.657Z,9.30
2022-08-25T11:37:47.183Z,8.85
2022-08-25T11:43:01.941Z,11.85
2022-08-25T11:48:19.308Z,13.88
2022-08-25T11:53:28.953Z,10.48
2022-08-25T11:58:46.766Z,8.50
2022-08-25T12:04:14.920Z,8.98
2022-08-25T12:09:23.606Z,11.10
2022-08-25T12:14:48.088Z,11.18
2022-08-25T12:19:55.794Z,10.48
2022-08-25T12:25:10.046Z,9.18
2022-08-25T12:30:21.107Z,9.77
2022-08-25T12:35:30.653Z,16.45
2022-08-25T12:40:39.394Z,10.50
2022-08-25T12:45:45.493Z,7.63
2022-08-25T12:50:58.328Z,11.82
2022-08-25T12:56:07.217Z,8.75
2022-08-25T13:01:35.279Z,9.40
2022-08-25T13:06:55.774Z,10.57
2022-08-25T13:12:08.924Z,8.63
2022-08-25T13:17:25.856Z,8.93
2022-08-25T13:22:29.462Z,9.45
2022-08-25T13:27:38.555Z,10.00
2022-08-25T13:32:42.396Z,10.63
2022-08-25T13:37:46.162Z,10.52
2022-08-25T13:42:56.151Z,9.80
2022-08-25T13:48:01.695Z,9.43
2022-08-25T13:53:12.584Z,10.18
2022-08-25T13:58:24.332Z,8.57
2022-08-25T14:03:33.437Z,11.57
2022-08-25T14:08:40.524Z,8.65
2022-08-25T14:13:46.391Z,9.20
2022-08-25T14:18:53.483Z,8.80
2022-08-25T14:23:58.865Z,10.10
2022-08-25T14:29:04.865Z,9.63
2022-08-25T14:34:16.828Z,13.88
2022-08-25T14:39:23.541Z,10.18
2022-08-25T14:44:28.419Z,8.80
2022-08-25T14:49:38.452Z,9.88
2022-08-25T14:54:42.147Z,9.70
2022-08-25T14:59:47.882Z,11.65
2022-08-25T15:04:54.146Z,9.63
2022-08-25T15:09:57.706Z,8.70
2022-08-25T15:15:04.155Z,9.65
2022-08-25T15:20:09.621Z,9.20
2022-08-25T15:25:15.525Z,11.40
2022-08-25T15:30:20.516Z,8.95
2022-08-25T15:35:23.983Z,12.88
2022-08-25T15:40:37.964Z,10.88
2022-08-25T15:45:42.973Z,10.23
2022-08-25T15:50:47.451Z,11.43
2022-08-25T15:55:54.078Z,9.75
2022-08-25T16:00:59.235Z,10.23
2022-08-25T16:06:05.422Z,11.52
2022-08-25T16:11:18.778Z,15.75
2022-08-25T16:16:25.851Z,9.82
2022-08-25T16:21:36.191Z,10.38
2022-08-25T16:26:48.495Z,12.55
2022-08-25T16:31:55.151Z,11.43
2022-08-25T16:37:00.343Z,11.85
2022-08-25T16:42:03.849Z,15.88
2022-08-25T16:47:09.417Z,12.75
2022-08-25T16:52:28.427Z,16.08
2022-08-25T16:57:32.163Z,17.58
2022-08-25T17:07:43.334Z,17.30
2022-08-25T17:12:46.814Z,16.70
2022-08-25T17:17:51.727Z,19.33
2022-08-25T17:22:55.191Z,19.48
2022-08-25T17:27:59.099Z,21.50
2022-08-25T17:33:07.563Z,17.13
2022-08-25T17:38:13.052Z,17.55
2022-08-25T17:43:16.455Z,18.45
2022-08-25T17:48:24.194Z,20.30
2022-08-25T17:53:31.003Z,17.48
2022-08-25T17:58:36.490Z,18.02
2022-08-25T18:03:41.490Z,19.27
2022-08-25T18:08:51.645Z,24.52
2022-08-25T18:13:57.417Z,17.80
2022-08-25T18:19:03.085Z,21.38
2022-08-25T18:24:10.646Z,21.77
2022-08-25T18:29:14.462Z,19.35
2022-08-25T18:34:24.139Z,22.75
2022-08-25T18:39:45.262Z,19.02
2022-08-25T18:44:48.686Z,20.83
2022-08-25T18:49:53.822Z,22.20
2022-08-25T18:54:58.207Z,20.17
2022-08-25T19:00:02.823Z,20.42
2022-08-25T19:05:09.701Z,18.95
2022-08-25T19:10:14.633Z,19.13
2022-08-25T19:15:18.333Z,20.45
2022-08-25T19:20:35.054Z,18.42
2022-08-25T19:25:41.728Z,26.17
2022-08-25T19:30:50.470Z,21.08
2022-08-25T19:35:55.974Z,21.75
2022-08-25T19:41:01.830Z,18.80
2022-08-25T19:46:06.210Z,25.67
2022-08-25T19:56:15.433Z,20.85
2022-08-25T20:01:20.933Z,19.92
2022-08-25T20:06:27.759Z,23.65
2022-08-25T20:11:33.589Z,20.90
2022-08-25T20:16:37.378Z,20.65
2022-08-25T20:21:44.534Z,20.52
2022-08-25T20:26:48.072Z,24.75
2022-08-25T20:31:52.943Z,23.87
2022-08-25T20:36:58.483Z,23.67
2022-08-25T20:42:04.129Z,26.52
2022-08-25T20:47:10.820Z,25.67
2022-08-25T20:52:16.335Z,23.52
2022-08-25T20:57:25.486Z,23.15
2022-08-25T21:02:30.674Z,25.00
2022-08-25T21:07:36.182Z,24.73
2022-08-25T21:12:40.103Z,28.02
2022-08-25T21:17:45.653Z,21.05
2022-08-25T21:22:52.207Z,27.10
2022-08-25T21:27:57.023Z,24.40
2022-08-25T21:33:02.176Z,25.15
2022-08-25T21:38:08.039Z,24.27
2022-08-25T21:43:12.068Z,25.23
2022-08-25T21:48:17.001Z,20.67
2022-08-25T21:53:22.156Z,24.38
2022-08-25T21:58:25.825Z,23.95
2022-08-25T22:03:31.361Z,21.83
2022-08-25T22:08:38.916Z,24.17
2022-08-25T22:13:44.256Z,27.88
2022-08-25T22:18:48.971Z,27.55
2022-08-25T22:23:56.108Z,25.58
2022-08-25T22:29:00.672Z,20.85
2022-08-25T22:34:06.271Z,27.10
2022-08-25T22:39:11.687Z,22.50
2022-08-25T22:44:15.751Z,25.50
2022-08-25T22:49:19.458Z,25.27
2022-08-25T22:54:25.759Z,23.33
2022-08-25T22:59:30.318Z,23.63
2022-08-25T23:04:34.001Z,25.50
2022-08-25T23:09:39.526Z,22.95
2022-08-25T23:14:44.365Z,27.83
2022-08-25T23:19:47.988Z,24.13
2022-08-25T23:24:53.810Z,24.85
2022-08-25T23:29:57.477Z,25.75
2022-08-25T23:35:00.900Z,22.00
2022-08-25T23:40:06.896Z,26.77
2022-08-25T23:45:11.314Z,24.35
2022-08-25T23:50:15.474Z,21.55
